sensor_id;sensor_type;location;lat;lon;timestamp;P1;durP1;ratioP1;P2;durP2;ratioP2
39674;SDS011;27790;50.840;4.386;2024-03-07T00:00:00;30.23;;;16.27;;
39674;SDS011;27790;50.840;4.386;2024-03-07T00:02:43;26.38;;;16.10;;
39674;SDS011;27790;50.840;4.386;2024-03-07T00:05:15;27.38;;;16.13;;
39674;SDS011;27790;50.840;4.386;2024-03-07T00:07:42;27.30;;;15.10;;
39674;SDS011;27790;50.840;4.386;2024-03-07T00:10:08;30.92;;;16.90;;
39674;SDS011;27790;50.840;4.386;2024-03-07T00:12:34;31.83;;;16.30;;
39674;SDS011;27790;50.840;4.386;2024-03-07T00:15:01;27.90;;;16.20;;
39674;SDS011;27790;50.840;4.386;2024-03-07T00:17:33;34.92;;;18.33;;
39674;SDS011;27790;50.840;4.386;2024-03-07T00:19:59;34.00;;;17.75;;
39674;SDS011;27790;50.840;4.386;2024-03-07T00:22:25;38.95;;;18.85;;
39674;SDS011;27790;50.840;4.386;2024-03-07T00:24:54;31.35;;;17.88;;
39674;SDS011;27790;50.840;4.386;2024-03-07T00:27:21;33.97;;;17.88;;
39674;SDS011;27790;50.840;4.386;2024-03-07T00:29:47;31.67;;;16.85;;
39674;SDS011;27790;50.840;4.386;2024-03-07T00:32:18;34.55;;;18.85;;
39674;SDS011;27790;50.840;4.386;2024-03-07T00:34:45;37.78;;;19.35;;
39674;SDS011;27790;50.840;4.386;2024-03-07T00:37:11;41.35;;;21.88;;
39674;SDS011;27790;50.840;4.386;2024-03-07T00:39:37;46.13;;;21.65;;
39674;SDS011;27790;50.840;4.386;2024-03-07T00:42:03;46.22;;;22.13;;
39674;SDS011;27790;50.840;4.386;2024-03-07T00:44:29;42.90;;;22.58;;
39674;SDS011;27790;50.840;4.386;2024-03-07T00:46:54;45.78;;;21.85;;
39674;SDS011;27790;50.840;4.386;2024-03-07T00:49:20;41.63;;;21.77;;
39674;SDS011;27790;50.840;4.386;2024-03-07T00:51:45;38.92;;;20.30;;
39674;SDS011;27790;50.840;4.386;2024-03-07T00:54:11;37.15;;;19.85;;
39674;SDS011;27790;50.840;4.386;2024-03-07T00:56:38;49.00;;;23.92;;
39674;SDS011;27790;50.840;4.386;2024-03-07T00:59:04;41.83;;;22.63;;
39674;SDS011;27790;50.840;4.386;2024-03-07T01:01:33;43.72;;;22.77;;
39674;SDS011;27790;50.840;4.386;2024-03-07T01:04:01;48.10;;;22.40;;
39674;SDS011;27790;50.840;4.386;2024-03-07T01:06:27;46.80;;;22.98;;
39674;SDS011;27790;50.840;4.386;2024-03-07T01:08:53;44.30;;;23.83;;
39674;SDS011;27790;50.840;4.386;2024-03-07T01:11:19;44.13;;;22.27;;
39674;SDS011;27790;50.840;4.386;2024-03-07T01:13:44;42.97;;;24.38;;
39674;SDS011;27790;50.840;4.386;2024-03-07T01:16:10;43.55;;;22.63;;
39674;SDS011;27790;50.840;4.386;2024-03-07T01:18:36;43.22;;;23.38;;
39674;SDS011;27790;50.840;4.386;2024-03-07T01:21:03;49.65;;;25.35;;
39674;SDS011;27790;50.840;4.386;2024-03-07T01:23:30;44.55;;;24.13;;
39674;SDS011;27790;50.840;4.386;2024-03-07T01:25:56;52.08;;;26.02;;
39674;SDS011;27790;50.840;4.386;2024-03-07T01:28:23;52.92;;;23.88;;
39674;SDS011;27790;50.840;4.386;2024-03-07T01:30:50;52.42;;;25.25;;
39674;SDS011;27790;50.840;4.386;2024-03-07T01:33:16;49.13;;;26.30;;
39674;SDS011;27790;50.840;4.386;2024-03-07T01:35:41;49.60;;;25.33;;
39674;SDS011;27790;50.840;4.386;2024-03-07T01:38:07;51.00;;;25.83;;
39674;SDS011;27790;50.840;4.386;2024-03-07T01:40:35;52.65;;;26.20;;
39674;SDS011;27790;50.840;4.386;2024-03-07T01:43:02;54.10;;;28.58;;
39674;SDS011;27790;50.840;4.386;2024-03-07T01:45:28;56.63;;;28.48;;
39674;SDS011;27790;50.840;4.386;2024-03-07T01:47:53;63.97;;;28.35;;
39674;SDS011;27790;50.840;4.386;2024-03-07T01:50:20;54.90;;;27.88;;
39674;SDS011;27790;50.840;4.386;2024-03-07T01:52:46;57.75;;;28.27;;
39674;SDS011;27790;50.840;4.386;2024-03-07T01:55:15;52.92;;;27.02;;
39674;SDS011;27790;50.840;4.386;2024-03-07T01:57:41;59.40;;;29.25;;
39674;SDS011;27790;50.840;4.386;2024-03-07T02:00:07;55.00;;;28.13;;
39674;SDS011;27790;50.840;4.386;2024-03-07T02:02:34;55.45;;;30.40;;
39674;SDS011;27790;50.840;4.386;2024-03-07T02:05:00;61.42;;;30.23;;
39674;SDS011;27790;50.840;4.386;2024-03-07T02:07:26;59.45;;;29.77;;
39674;SDS011;27790;50.840;4.386;2024-03-07T02:10:02;59.15;;;30.52;;
39674;SDS011;27790;50.840;4.386;2024-03-07T02:12:28;64.22;;;30.98;;
39674;SDS011;27790;50.840;4.386;2024-03-07T02:14:55;60.50;;;31.15;;
39674;SDS011;27790;50.840;4.386;2024-03-07T02:17:24;61.78;;;31.45;;
39674;SDS011;27790;50.840;4.386;2024-03-07T02:19:50;59.08;;;29.90;;
39674;SDS011;27790;50.840;4.386;2024-03-07T02:22:15;64.38;;;30.90;;
39674;SDS011;27790;50.840;4.386;2024-03-07T02:24:41;65.60;;;31.17;;
39674;SDS011;27790;50.840;4.386;2024-03-07T02:27:07;58.60;;;29.85;;
39674;SDS011;27790;50.840;4.386;2024-03-07T02:29:34;58.50;;;30.35;;
39674;SDS011;27790;50.840;4.386;2024-03-07T02:32:01;62.55;;;30.80;;
39674;SDS011;27790;50.840;4.386;2024-03-07T02:34:27;65.70;;;32.75;;
39674;SDS011;27790;50.840;4.386;2024-03-07T02:36:52;63.17;;;32.15;;
39674;SDS011;27790;50.840;4.386;2024-03-07T02:39:18;59.38;;;29.95;;
39674;SDS011;27790;50.840;4.386;2024-03-07T02:41:43;62.65;;;31.60;;
39674;SDS011;27790;50.840;4.386;2024-03-07T02:44:09;65.40;;;31.23;;
39674;SDS011;27790;50.840;4.386;2024-03-07T02:46:35;69.70;;;33.90;;
39674;SDS011;27790;50.840;4.386;2024-03-07T02:49:00;64.18;;;32.75;;
39674;SDS011;27790;50.840;4.386;2024-03-07T02:51:26;65.28;;;33.30;;
39674;SDS011;27790;50.840;4.386;2024-03-07T02:53:51;74.13;;;32.08;;
39674;SDS011;27790;50.840;4.386;2024-03-07T02:56:17;65.65;;;31.95;;
39674;SDS011;27790;50.840;4.386;2024-03-07T02:58:43;69.50;;;34.47;;
39674;SDS011;27790;50.840;4.386;2024-03-07T03:01:08;75.95;;;34.17;;
39674;SDS011;27790;50.840;4.386;2024-03-07T03:03:35;70.35;;;36.28;;
39674;SDS011;27790;50.840;4.386;2024-03-07T03:06:01;66.28;;;34.53;;
39674;SDS011;27790;50.840;4.386;2024-03-07T03:08:27;74.38;;;34.85;;
39674;SDS011;27790;50.840;4.386;2024-03-07T03:10:53;69.80;;;34.15;;
39674;SDS011;27790;50.840;4.386;2024-03-07T03:13:20;79.43;;;34.95;;
39674;SDS011;27790;50.840;4.386;2024-03-07T03:15:45;74.65;;;33.78;;
39674;SDS011;27790;50.840;4.386;2024-03-07T03:18:12;69.78;;;35.03;;
39674;SDS011;27790;50.840;4.386;2024-03-07T03:20:37;69.32;;;33.67;;
39674;SDS011;27790;50.840;4.386;2024-03-07T03:23:04;74.32;;;35.20;;
39674;SDS011;27790;50.840;4.386;2024-03-07T03:25:30;66.70;;;34.33;;
39674;SDS011;27790;50.840;4.386;2024-03-07T03:28:00;69.03;;;34.35;;
39674;SDS011;27790;50.840;4.386;2024-03-07T03:30:29;74.50;;;35.05;;
39674;SDS011;27790;50.840;4.386;2024-03-07T03:32:55;77.65;;;38.60;;
39674;SDS011;27790;50.840;4.386;2024-03-07T03:35:20;73.88;;;36.38;;
39674;SDS011;27790;50.840;4.386;2024-03-07T03:37:46;81.90;;;36.67;;
39674;SDS011;27790;50.840;4.386;2024-03-07T03:40:12;82.85;;;38.97;;
39674;SDS011;27790;50.840;4.386;2024-03-07T03:42:38;77.63;;;36.03;;
39674;SDS011;27790;50.840;4.386;2024-03-07T03:45:05;72.95;;;37.17;;
39674;SDS011;27790;50.840;4.386;2024-03-07T03:47:35;89.30;;;39.78;;
39674;SDS011;27790;50.840;4.386;2024-03-07T03:50:04;85.38;;;39.00;;
39674;SDS011;27790;50.840;4.386;2024-03-07T03:52:31;88.03;;;39.60;;
39674;SDS011;27790;50.840;4.386;2024-03-07T03:54:58;82.75;;;36.55;;
39674;SDS011;27790;50.840;4.386;2024-03-07T03:57:24;77.07;;;37.60;;
39674;SDS011;27790;50.840;4.386;2024-03-07T03:59:51;77.05;;;37.17;;
39674;SDS011;27790;50.840;4.386;2024-03-07T04:02:17;81.03;;;39.40;;
39674;SDS011;27790;50.840;4.386;2024-03-07T04:04:42;80.88;;;38.83;;
39674;SDS011;27790;50.840;4.386;2024-03-07T04:07:10;94.40;;;40.72;;
39674;SDS011;27790;50.840;4.386;2024-03-07T04:09:37;86.43;;;38.60;;
39674;SDS011;27790;50.840;4.386;2024-03-07T04:12:03;92.05;;;41.67;;
39674;SDS011;27790;50.840;4.386;2024-03-07T04:14:29;80.70;;;38.55;;
39674;SDS011;27790;50.840;4.386;2024-03-07T04:16:57;88.00;;;39.80;;
39674;SDS011;27790;50.840;4.386;2024-03-07T04:19:23;87.07;;;40.85;;
39674;SDS011;27790;50.840;4.386;2024-03-07T04:21:50;87.05;;;40.25;;
39674;SDS011;27790;50.840;4.386;2024-03-07T04:24:16;87.07;;;40.03;;
39674;SDS011;27790;50.840;4.386;2024-03-07T04:26:42;87.30;;;41.13;;
39674;SDS011;27790;50.840;4.386;2024-03-07T04:29:07;88.60;;;39.53;;
39674;SDS011;27790;50.840;4.386;2024-03-07T04:31:33;95.00;;;43.25;;
39674;SDS011;27790;50.840;4.386;2024-03-07T04:33:59;83.07;;;36.67;;
39674;SDS011;27790;50.840;4.386;2024-03-07T04:36:25;87.57;;;40.40;;
39674;SDS011;27790;50.840;4.386;2024-03-07T04:38:51;91.63;;;43.63;;
39674;SDS011;27790;50.840;4.386;2024-03-07T04:41:17;89.20;;;41.30;;
39674;SDS011;27790;50.840;4.386;2024-03-07T04:43:43;94.82;;;43.70;;
39674;SDS011;27790;50.840;4.386;2024-03-07T04:46:09;97.82;;;43.20;;
39674;SDS011;27790;50.840;4.386;2024-03-07T04:48:35;93.85;;;42.65;;
39674;SDS011;27790;50.840;4.386;2024-03-07T04:51:01;96.22;;;43.28;;
39674;SDS011;27790;50.840;4.386;2024-03-07T04:53:28;94.20;;;43.88;;
39674;SDS011;27790;50.840;4.386;2024-03-07T04:55:54;94.30;;;42.72;;
39674;SDS011;27790;50.840;4.386;2024-03-07T04:58:21;102.93;;;45.20;;
39674;SDS011;27790;50.840;4.386;2024-03-07T05:00:46;99.43;;;42.80;;
39674;SDS011;27790;50.840;4.386;2024-03-07T05:03:12;104.35;;;45.55;;
39674;SDS011;27790;50.840;4.386;2024-03-07T05:05:38;100.15;;;45.75;;
39674;SDS011;27790;50.840;4.386;2024-03-07T05:08:03;109.05;;;48.10;;
39674;SDS011;27790;50.840;4.386;2024-03-07T05:10:29;111.65;;;46.53;;
39674;SDS011;27790;50.840;4.386;2024-03-07T05:12:55;111.72;;;49.13;;
39674;SDS011;27790;50.840;4.386;2024-03-07T05:15:23;115.60;;;46.67;;
39674;SDS011;27790;50.840;4.386;2024-03-07T05:17:51;123.97;;;50.88;;
39674;SDS011;27790;50.840;4.386;2024-03-07T05:20:17;123.75;;;48.65;;
39674;SDS011;27790;50.840;4.386;2024-03-07T05:22:43;142.40;;;54.40;;
39674;SDS011;27790;50.840;4.386;2024-03-07T05:25:17;112.80;;;46.88;;
39674;SDS011;27790;50.840;4.386;2024-03-07T05:27:44;130.80;;;52.08;;
39674;SDS011;27790;50.840;4.386;2024-03-07T05:30:10;132.73;;;48.35;;
39674;SDS011;27790;50.840;4.386;2024-03-07T05:32:38;133.02;;;49.40;;
39674;SDS011;27790;50.840;4.386;2024-03-07T05:35:05;127.65;;;47.15;;
39674;SDS011;27790;50.840;4.386;2024-03-07T05:37:31;140.57;;;50.95;;
39674;SDS011;27790;50.840;4.386;2024-03-07T05:39:57;146.07;;;52.22;;
39674;SDS011;27790;50.840;4.386;2024-03-07T05:42:22;301.02;;;58.22;;
39674;SDS011;27790;50.840;4.386;2024-03-07T05:44:50;157.10;;;53.03;;
39674;SDS011;27790;50.840;4.386;2024-03-07T05:47:15;166.45;;;51.65;;
39674;SDS011;27790;50.840;4.386;2024-03-07T05:49:42;199.57;;;53.05;;
39674;SDS011;27790;50.840;4.386;2024-03-07T05:52:08;247.57;;;59.05;;
39674;SDS011;27790;50.840;4.386;2024-03-07T05:54:34;247.57;;;58.45;;
39674;SDS011;27790;50.840;4.386;2024-03-07T05:57:00;218.98;;;56.75;;
39674;SDS011;27790;50.840;4.386;2024-03-07T05:59:26;169.45;;;56.38;;
39674;SDS011;27790;50.840;4.386;2024-03-07T06:01:55;155.23;;;54.45;;
39674;SDS011;27790;50.840;4.386;2024-03-07T06:04:21;169.32;;;54.53;;
39674;SDS011;27790;50.840;4.386;2024-03-07T06:06:47;182.13;;;56.60;;
39674;SDS011;27790;50.840;4.386;2024-03-07T06:09:13;176.10;;;51.40;;
39674;SDS011;27790;50.840;4.386;2024-03-07T06:11:39;160.48;;;54.00;;
39674;SDS011;27790;50.840;4.386;2024-03-07T06:14:09;166.98;;;51.22;;
39674;SDS011;27790;50.840;4.386;2024-03-07T06:16:37;240.93;;;58.25;;
39674;SDS011;27790;50.840;4.386;2024-03-07T06:19:04;183.23;;;53.05;;
39674;SDS011;27790;50.840;4.386;2024-03-07T06:21:33;176.52;;;53.55;;
39674;SDS011;27790;50.840;4.386;2024-03-07T06:24:00;191.23;;;56.20;;
39674;SDS011;27790;50.840;4.386;2024-03-07T06:26:32;158.82;;;52.97;;
39674;SDS011;27790;50.840;4.386;2024-03-07T06:29:17;150.45;;;51.60;;
39674;SDS011;27790;50.840;4.386;2024-03-07T06:31:43;159.05;;;52.17;;
39674;SDS011;27790;50.840;4.386;2024-03-07T06:36:42;156.30;;;53.95;;
39674;SDS011;27790;50.840;4.386;2024-03-07T06:39:08;164.23;;;53.88;;
39674;SDS011;27790;50.840;4.386;2024-03-07T06:41:35;152.80;;;50.83;;
39674;SDS011;27790;50.840;4.386;2024-03-07T06:44:01;153.75;;;50.45;;
39674;SDS011;27790;50.840;4.386;2024-03-07T06:46:27;172.20;;;52.10;;
39674;SDS011;27790;50.840;4.386;2024-03-07T06:48:54;162.10;;;49.92;;
39674;SDS011;27790;50.840;4.386;2024-03-07T06:51:20;139.90;;;49.00;;
39674;SDS011;27790;50.840;4.386;2024-03-07T06:53:47;137.68;;;51.30;;
39674;SDS011;27790;50.840;4.386;2024-03-07T06:56:13;131.77;;;47.00;;
39674;SDS011;27790;50.840;4.386;2024-03-07T06:58:39;126.32;;;49.47;;
39674;SDS011;27790;50.840;4.386;2024-03-07T07:01:05;130.43;;;45.55;;
39674;SDS011;27790;50.840;4.386;2024-03-07T07:03:34;121.82;;;49.25;;
39674;SDS011;27790;50.840;4.386;2024-03-07T07:06:01;120.93;;;46.78;;
39674;SDS011;27790;50.840;4.386;2024-03-07T07:08:26;110.10;;;44.22;;
39674;SDS011;27790;50.840;4.386;2024-03-07T07:10:54;121.97;;;46.50;;
39674;SDS011;27790;50.840;4.386;2024-03-07T07:13:21;120.78;;;45.75;;
39674;SDS011;27790;50.840;4.386;2024-03-07T07:15:46;117.88;;;43.58;;
39674;SDS011;27790;50.840;4.386;2024-03-07T07:18:12;122.60;;;44.75;;
39674;SDS011;27790;50.840;4.386;2024-03-07T07:20:38;125.22;;;46.22;;
39674;SDS011;27790;50.840;4.386;2024-03-07T07:23:04;104.53;;;45.22;;
39674;SDS011;27790;50.840;4.386;2024-03-07T07:25:30;108.30;;;44.47;;
39674;SDS011;27790;50.840;4.386;2024-03-07T07:27:56;111.82;;;42.08;;
39674;SDS011;27790;50.840;4.386;2024-03-07T07:30:22;132.40;;;44.72;;
39674;SDS011;27790;50.840;4.386;2024-03-07T07:32:49;113.53;;;44.53;;
39674;SDS011;27790;50.840;4.386;2024-03-07T07:35:16;106.10;;;41.65;;
39674;SDS011;27790;50.840;4.386;2024-03-07T07:37:42;98.03;;;42.83;;
39674;SDS011;27790;50.840;4.386;2024-03-07T07:40:16;112.32;;;43.55;;
39674;SDS011;27790;50.840;4.386;2024-03-07T07:42:44;109.03;;;43.40;;
39674;SDS011;27790;50.840;4.386;2024-03-07T07:45:11;106.75;;;40.92;;
39674;SDS011;27790;50.840;4.386;2024-03-07T07:47:41;110.80;;;40.20;;
39674;SDS011;27790;50.840;4.386;2024-03-07T07:50:12;100.03;;;39.38;;
39674;SDS011;27790;50.840;4.386;2024-03-07T07:52:40;110.30;;;42.67;;
39674;SDS011;27790;50.840;4.386;2024-03-07T07:55:07;93.10;;;39.15;;
39674;SDS011;27790;50.840;4.386;2024-03-07T07:57:39;116.70;;;40.85;;
39674;SDS011;27790;50.840;4.386;2024-03-07T08:00:12;100.63;;;40.53;;
39674;SDS011;27790;50.840;4.386;2024-03-07T08:02:49;99.15;;;40.92;;
39674;SDS011;27790;50.840;4.386;2024-03-07T08:05:16;103.60;;;40.75;;
39674;SDS011;27790;50.840;4.386;2024-03-07T08:07:44;93.72;;;40.30;;
39674;SDS011;27790;50.840;4.386;2024-03-07T08:10:11;99.13;;;39.05;;
39674;SDS011;27790;50.840;4.386;2024-03-07T08:12:37;98.72;;;39.03;;
39674;SDS011;27790;50.840;4.386;2024-03-07T08:15:03;95.40;;;38.63;;
39674;SDS011;27790;50.840;4.386;2024-03-07T08:17:30;100.82;;;40.47;;
39674;SDS011;27790;50.840;4.386;2024-03-07T08:19:56;89.47;;;38.80;;
39674;SDS011;27790;50.840;4.386;2024-03-07T08:22:22;96.88;;;40.15;;
39674;SDS011;27790;50.840;4.386;2024-03-07T08:24:49;107.57;;;41.67;;
39674;SDS011;27790;50.840;4.386;2024-03-07T08:27:15;107.63;;;38.67;;
39674;SDS011;27790;50.840;4.386;2024-03-07T08:29:40;88.88;;;37.92;;
39674;SDS011;27790;50.840;4.386;2024-03-07T08:32:06;90.57;;;38.15;;
39674;SDS011;27790;50.840;4.386;2024-03-07T08:34:32;87.32;;;36.38;;
39674;SDS011;27790;50.840;4.386;2024-03-07T08:36:58;93.00;;;38.22;;
39674;SDS011;27790;50.840;4.386;2024-03-07T08:39:24;87.75;;;35.50;;
39674;SDS011;27790;50.840;4.386;2024-03-07T08:41:50;95.55;;;38.47;;
39674;SDS011;27790;50.840;4.386;2024-03-07T08:44:15;93.45;;;38.42;;
39674;SDS011;27790;50.840;4.386;2024-03-07T08:46:42;94.63;;;35.97;;
39674;SDS011;27790;50.840;4.386;2024-03-07T08:49:08;91.25;;;36.70;;
39674;SDS011;27790;50.840;4.386;2024-03-07T08:51:36;86.38;;;35.70;;
39674;SDS011;27790;50.840;4.386;2024-03-07T08:54:01;86.63;;;35.67;;
39674;SDS011;27790;50.840;4.386;2024-03-07T08:56:27;88.32;;;35.22;;
39674;SDS011;27790;50.840;4.386;2024-03-07T08:58:53;88.60;;;36.53;;
39674;SDS011;27790;50.840;4.386;2024-03-07T09:01:18;82.35;;;33.42;;
39674;SDS011;27790;50.840;4.386;2024-03-07T09:03:45;88.60;;;37.28;;
39674;SDS011;27790;50.840;4.386;2024-03-07T09:06:10;74.60;;;32.45;;
39674;SDS011;27790;50.840;4.386;2024-03-07T09:08:38;79.18;;;34.30;;
39674;SDS011;27790;50.840;4.386;2024-03-07T09:11:04;88.10;;;36.53;;
39674;SDS011;27790;50.840;4.386;2024-03-07T09:13:29;75.20;;;34.13;;
39674;SDS011;27790;50.840;4.386;2024-03-07T09:15:55;84.25;;;38.42;;
39674;SDS011;27790;50.840;4.386;2024-03-07T09:18:20;76.35;;;33.63;;
39674;SDS011;27790;50.840;4.386;2024-03-07T09:20:47;66.68;;;32.03;;
39674;SDS011;27790;50.840;4.386;2024-03-07T09:23:13;68.38;;;33.10;;
39674;SDS011;27790;50.840;4.386;2024-03-07T09:25:39;73.72;;;33.75;;
39674;SDS011;27790;50.840;4.386;2024-03-07T09:28:05;71.13;;;32.72;;
39674;SDS011;27790;50.840;4.386;2024-03-07T09:30:31;74.28;;;33.42;;
39674;SDS011;27790;50.840;4.386;2024-03-07T09:32:56;72.63;;;33.47;;
39674;SDS011;27790;50.840;4.386;2024-03-07T09:35:22;70.97;;;32.75;;
39674;SDS011;27790;50.840;4.386;2024-03-07T09:37:48;67.70;;;30.80;;
39674;SDS011;27790;50.840;4.386;2024-03-07T09:40:13;76.30;;;33.97;;
39674;SDS011;27790;50.840;4.386;2024-03-07T09:42:46;68.45;;;32.90;;
39674;SDS011;27790;50.840;4.386;2024-03-07T09:45:13;72.53;;;31.15;;
39674;SDS011;27790;50.840;4.386;2024-03-07T09:47:41;71.63;;;34.30;;
39674;SDS011;27790;50.840;4.386;2024-03-07T09:50:09;71.18;;;31.73;;
39674;SDS011;27790;50.840;4.386;2024-03-07T09:52:35;70.75;;;32.03;;
39674;SDS011;27790;50.840;4.386;2024-03-07T09:55:01;74.85;;;33.95;;
39674;SDS011;27790;50.840;4.386;2024-03-07T09:57:27;73.90;;;32.83;;
39674;SDS011;27790;50.840;4.386;2024-03-07T09:59:57;66.88;;;33.38;;
39674;SDS011;27790;50.840;4.386;2024-03-07T10:02:24;72.80;;;34.03;;
39674;SDS011;27790;50.840;4.386;2024-03-07T10:04:51;70.97;;;33.88;;
39674;SDS011;27790;50.840;4.386;2024-03-07T10:07:19;67.70;;;32.40;;
39674;SDS011;27790;50.840;4.386;2024-03-07T10:09:46;72.18;;;32.45;;
39674;SDS011;27790;50.840;4.386;2024-03-07T10:12:14;76.32;;;33.40;;
39674;SDS011;27790;50.840;4.386;2024-03-07T10:14:47;69.15;;;34.13;;
39674;SDS011;27790;50.840;4.386;2024-03-07T10:17:15;70.70;;;32.70;;
39674;SDS011;27790;50.840;4.386;2024-03-07T10:19:41;73.10;;;31.85;;
39674;SDS011;27790;50.840;4.386;2024-03-07T10:22:07;74.57;;;32.35;;
39674;SDS011;27790;50.840;4.386;2024-03-07T10:24:32;70.32;;;34.95;;
39674;SDS011;27790;50.840;4.386;2024-03-07T10:26:58;77.30;;;33.38;;
39674;SDS011;27790;50.840;4.386;2024-03-07T10:29:26;67.45;;;34.08;;
39674;SDS011;27790;50.840;4.386;2024-03-07T10:31:51;71.97;;;33.40;;
39674;SDS011;27790;50.840;4.386;2024-03-07T10:34:17;66.78;;;34.72;;
39674;SDS011;27790;50.840;4.386;2024-03-07T10:36:43;74.95;;;33.42;;
39674;SDS011;27790;50.840;4.386;2024-03-07T10:39:10;61.50;;;31.45;;
39674;SDS011;27790;50.840;4.386;2024-03-07T10:44:15;68.05;;;33.97;;
39674;SDS011;27790;50.840;4.386;2024-03-07T10:46:51;65.72;;;33.22;;
39674;SDS011;27790;50.840;4.386;2024-03-07T10:49:18;62.70;;;29.98;;
39674;SDS011;27790;50.840;4.386;2024-03-07T10:52:03;58.72;;;30.88;;
39674;SDS011;27790;50.840;4.386;2024-03-07T10:54:36;61.83;;;30.80;;
39674;SDS011;27790;50.840;4.386;2024-03-07T10:57:37;66.22;;;32.28;;
39674;SDS011;27790;50.840;4.386;2024-03-07T11:00:15;55.55;;;29.55;;
39674;SDS011;27790;50.840;4.386;2024-03-07T11:03:01;63.92;;;33.00;;
39674;SDS011;27790;50.840;4.386;2024-03-07T11:05:32;64.13;;;31.35;;
39674;SDS011;27790;50.840;4.386;2024-03-07T11:07:59;61.88;;;29.92;;
39674;SDS011;27790;50.840;4.386;2024-03-07T11:12:58;59.75;;;29.48;;
39674;SDS011;27790;50.840;4.386;2024-03-07T11:15:25;54.20;;;28.73;;
39674;SDS011;27790;50.840;4.386;2024-03-07T11:17:53;54.17;;;28.83;;
39674;SDS011;27790;50.840;4.386;2024-03-07T11:20:23;57.10;;;27.08;;
39674;SDS011;27790;50.840;4.386;2024-03-07T11:22:50;52.88;;;26.75;;
39674;SDS011;27790;50.840;4.386;2024-03-07T11:25:20;54.38;;;25.92;;
39674;SDS011;27790;50.840;4.386;2024-03-07T11:27:59;48.88;;;25.52;;
39674;SDS011;27790;50.840;4.386;2024-03-07T11:30:26;49.30;;;24.38;;
39674;SDS011;27790;50.840;4.386;2024-03-07T11:32:53;48.55;;;25.25;;
39674;SDS011;27790;50.840;4.386;2024-03-07T11:35:20;47.25;;;26.48;;
39674;SDS011;27790;50.840;4.386;2024-03-07T11:37:57;44.40;;;25.58;;
39674;SDS011;27790;50.840;4.386;2024-03-07T11:42:50;45.95;;;25.25;;
39674;SDS011;27790;50.840;4.386;2024-03-07T11:45:18;49.78;;;26.05;;
39674;SDS011;27790;50.840;4.386;2024-03-07T11:50:29;41.50;;;22.52;;
39674;SDS011;27790;50.840;4.386;2024-03-07T11:52:59;44.80;;;24.85;;
39674;SDS011;27790;50.840;4.386;2024-03-07T11:55:26;39.78;;;23.08;;
39674;SDS011;27790;50.840;4.386;2024-03-07T11:57:53;44.30;;;24.65;;
39674;SDS011;27790;50.840;4.386;2024-03-07T12:00:20;36.92;;;21.88;;
39674;SDS011;27790;50.840;4.386;2024-03-07T12:02:49;38.10;;;20.42;;
39674;SDS011;27790;50.840;4.386;2024-03-07T12:05:15;39.67;;;21.98;;
39674;SDS011;27790;50.840;4.386;2024-03-07T12:07:42;41.65;;;22.48;;
39674;SDS011;27790;50.840;4.386;2024-03-07T12:10:08;38.95;;;22.35;;
39674;SDS011;27790;50.840;4.386;2024-03-07T12:12:35;37.83;;;20.38;;
39674;SDS011;27790;50.840;4.386;2024-03-07T12:15:03;38.38;;;21.88;;
39674;SDS011;27790;50.840;4.386;2024-03-07T12:17:34;37.38;;;22.05;;
39674;SDS011;27790;50.840;4.386;2024-03-07T12:20:00;41.10;;;22.02;;
39674;SDS011;27790;50.840;4.386;2024-03-07T12:22:43;39.80;;;23.05;;
39674;SDS011;27790;50.840;4.386;2024-03-07T12:25:10;36.10;;;21.35;;
39674;SDS011;27790;50.840;4.386;2024-03-07T12:27:38;37.05;;;21.17;;
39674;SDS011;27790;50.840;4.386;2024-03-07T12:30:14;36.17;;;20.73;;
39674;SDS011;27790;50.840;4.386;2024-03-07T12:32:48;36.20;;;20.40;;
39674;SDS011;27790;50.840;4.386;2024-03-07T12:35:14;36.55;;;21.35;;
39674;SDS011;27790;50.840;4.386;2024-03-07T12:37:40;35.08;;;20.95;;
39674;SDS011;27790;50.840;4.386;2024-03-07T12:40:16;38.38;;;20.52;;
39674;SDS011;27790;50.840;4.386;2024-03-07T12:42:47;37.50;;;20.50;;
39674;SDS011;27790;50.840;4.386;2024-03-07T12:45:15;35.92;;;19.65;;
39674;SDS011;27790;50.840;4.386;2024-03-07T12:47:46;37.55;;;20.10;;
39674;SDS011;27790;50.840;4.386;2024-03-07T12:50:19;31.70;;;20.25;;
39674;SDS011;27790;50.840;4.386;2024-03-07T12:52:48;38.60;;;21.83;;
39674;SDS011;27790;50.840;4.386;2024-03-07T12:55:17;37.05;;;21.58;;
39674;SDS011;27790;50.840;4.386;2024-03-07T12:57:47;35.13;;;21.55;;
39674;SDS011;27790;50.840;4.386;2024-03-07T13:00:15;46.92;;;23.45;;
39674;SDS011;27790;50.840;4.386;2024-03-07T13:02:47;37.65;;;21.85;;
39674;SDS011;27790;50.840;4.386;2024-03-07T13:05:14;32.17;;;21.10;;
39674;SDS011;27790;50.840;4.386;2024-03-07T13:07:51;34.72;;;21.63;;
39674;SDS011;27790;50.840;4.386;2024-03-07T13:10:17;44.03;;;23.40;;
39674;SDS011;27790;50.840;4.386;2024-03-07T13:12:44;41.90;;;24.17;;
39674;SDS011;27790;50.840;4.386;2024-03-07T13:15:11;44.22;;;23.50;;
39674;SDS011;27790;50.840;4.386;2024-03-07T13:17:37;40.58;;;22.48;;
39674;SDS011;27790;50.840;4.386;2024-03-07T13:20:02;44.17;;;24.60;;
39674;SDS011;27790;50.840;4.386;2024-03-07T13:25:09;37.25;;;22.38;;
39674;SDS011;27790;50.840;4.386;2024-03-07T13:27:39;35.83;;;23.38;;
39674;SDS011;27790;50.840;4.386;2024-03-07T13:30:06;37.33;;;23.00;;
39674;SDS011;27790;50.840;4.386;2024-03-07T13:32:32;37.47;;;22.75;;
39674;SDS011;27790;50.840;4.386;2024-03-07T13:34:58;37.70;;;23.23;;
39674;SDS011;27790;50.840;4.386;2024-03-07T13:37:26;39.55;;;23.13;;
39674;SDS011;27790;50.840;4.386;2024-03-07T13:39:52;36.08;;;20.65;;
39674;SDS011;27790;50.840;4.386;2024-03-07T13:42:17;40.05;;;23.65;;
39674;SDS011;27790;50.840;4.386;2024-03-07T13:44:43;42.28;;;21.33;;
39674;SDS011;27790;50.840;4.386;2024-03-07T13:47:09;34.58;;;21.20;;
39674;SDS011;27790;50.840;4.386;2024-03-07T13:49:35;33.88;;;18.90;;
39674;SDS011;27790;50.840;4.386;2024-03-07T13:52:03;37.53;;;21.63;;
39674;SDS011;27790;50.840;4.386;2024-03-07T13:54:35;42.07;;;21.23;;
39674;SDS011;27790;50.840;4.386;2024-03-07T14:03:19;34.47;;;19.48;;
39674;SDS011;27790;50.840;4.386;2024-03-07T14:06:02;28.95;;;18.38;;
39674;SDS011;27790;50.840;4.386;2024-03-07T14:28:54;34.65;;;18.20;;
39674;SDS011;27790;50.840;4.386;2024-03-07T14:31:51;26.80;;;16.98;;
39674;SDS011;27790;50.840;4.386;2024-03-07T14:37:27;25.98;;;17.00;;
39674;SDS011;27790;50.840;4.386;2024-03-07T14:40:19;27.83;;;17.10;;
39674;SDS011;27790;50.840;4.386;2024-03-07T14:42:47;30.60;;;17.13;;
39674;SDS011;27790;50.840;4.386;2024-03-07T14:45:25;25.92;;;17.48;;
39674;SDS011;27790;50.840;4.386;2024-03-07T14:47:56;31.40;;;17.85;;
39674;SDS011;27790;50.840;4.386;2024-03-07T14:50:22;29.30;;;17.75;;
39674;SDS011;27790;50.840;4.386;2024-03-07T14:52:52;26.17;;;18.25;;
39674;SDS011;27790;50.840;4.386;2024-03-07T14:55:18;29.45;;;17.88;;
39674;SDS011;27790;50.840;4.386;2024-03-07T14:57:44;27.70;;;16.98;;
39674;SDS011;27790;50.840;4.386;2024-03-07T15:00:11;24.50;;;15.50;;
39674;SDS011;27790;50.840;4.386;2024-03-07T15:02:51;26.05;;;16.02;;
39674;SDS011;27790;50.840;4.386;2024-03-07T15:05:22;28.15;;;16.00;;